createdAt,value
2023-05-24T00:00:38.161Z,0
2023-05-24T00:01:54.428Z,0
2023-05-24T00:03:10.659Z,0
2023-05-24T00:04:26.909Z,0
2023-05-24T00:05:43.160Z,0
2023-05-24T00:06:59.409Z,0
2023-05-24T00:08:15.659Z,0
2023-05-24T00:09:31.907Z,0
2023-05-24T00:10:48.157Z,0
2023-05-24T00:12:04.402Z,0
2023-05-24T00:13:20.659Z,0
2023-05-24T00:14:35.958Z,0
2023-05-24T00:15:52.217Z,0
2023-05-24T00:17:08.452Z,0
2023-05-24T00:18:24.707Z,0
2023-05-24T00:19:40.954Z,0
2023-05-24T00:20:57.208Z,0
2023-05-24T00:22:13.452Z,0
2023-05-24T00:23:29.699Z,0
2023-05-24T00:24:45.952Z,0
2023-05-24T00:26:02.193Z,0
2023-05-24T00:27:18.446Z,0
2023-05-24T00:28:34.693Z,0
2023-05-24T00:29:50.944Z,0
2023-05-24T00:31:06.259Z,0
2023-05-24T00:32:22.522Z,0
2023-05-24T00:33:38.751Z,0
2023-05-24T00:34:54.999Z,0
2023-05-24T00:36:11.249Z,0
2023-05-24T00:37:27.502Z,0
2023-05-24T00:38:43.749Z,0
2023-05-24T00:39:59.996Z,0
2023-05-24T00:41:16.252Z,0
2023-05-24T00:42:23.000Z,0
2023-05-24T00:43:48.747Z,0
2023-05-24T00:45:04.985Z,0
2023-05-24T00:46:21.235Z,0
2023-05-24T00:47:36.545Z,0
2023-05-24T00:48:52.790Z,0
2023-05-24T00:50:09.043Z,0
2023-05-24T00:51:25.288Z,0
2023-05-24T00:52:41.541Z,0
2023-05-24T00:53:57.788Z,0
2023-05-24T00:55:14.034Z,0
2023-05-24T00:56:30.280Z,0
2023-05-24T00:57:46.530Z,0
2023-05-24T00:59:02.778Z,0
2023-05-24T01:00:19.035Z,0
2023-05-24T01:01:35.287Z,0
2023-05-24T01:02:51.540Z,0
2023-05-24T01:04:06.848Z,0
2023-05-24T01:05:23.084Z,0
2023-05-24T01:06:39.401Z,0
2023-05-24T01:07:55.572Z,0
2023-05-24T01:09:03.000Z,0
2023-05-24T01:10:28.084Z,0
2023-05-24T01:11:44.320Z,0
2023-05-24T01:13:00.582Z,0
2023-05-24T01:14:16.828Z,0
2023-05-24T01:15:33.076Z,0
2023-05-24T01:16:49.322Z,0
2023-05-24T01:18:05.583Z,0
2023-05-24T01:19:21.823Z,0
2023-05-24T01:20:37.123Z,0
2023-05-24T01:21:53.445Z,0
2023-05-24T01:23:09.686Z,0
2023-05-24T01:24:25.940Z,0
2023-05-24T01:25:42.193Z,0
2023-05-24T01:26:58.447Z,0
2023-05-24T01:28:14.686Z,0
2023-05-24T01:29:30.940Z,0
2023-05-24T01:30:47.193Z,0
2023-05-24T01:31:54.000Z,0
2023-05-24T01:33:19.689Z,0
2023-05-24T01:34:35.947Z,0
2023-05-24T01:35:52.214Z,0
2023-05-24T01:37:07.499Z,0
2023-05-24T01:38:23.752Z,0
2023-05-24T01:39:39.998Z,0
2023-05-24T01:40:56.253Z,0
2023-05-24T01:42:12.509Z,0
2023-05-24T01:43:28.758Z,0
2023-05-24T01:44:44.994Z,0
2023-05-24T01:46:01.253Z,0
2023-05-24T01:47:17.498Z,0
2023-05-24T01:48:33.758Z,0
2023-05-24T01:49:49.997Z,0
2023-05-24T01:51:06.247Z,0
2023-05-24T01:52:13.000Z,0
2023-05-24T01:53:37.809Z,0
2023-05-24T01:54:54.063Z,0
2023-05-24T01:56:10.308Z,0
2023-05-24T01:57:26.557Z,0
2023-05-24T01:58:42.808Z,0
2023-05-24T01:59:59.057Z,0
2023-05-24T02:01:15.310Z,0
2023-05-24T02:02:31.554Z,0
2023-05-24T02:03:47.814Z,0
2023-05-24T02:05:04.061Z,0
2023-05-24T02:06:11.000Z,0
2023-05-24T02:07:36.586Z,0
2023-05-24T02:08:52.831Z,0
2023-05-24T02:10:08.143Z,0
2023-05-24T02:12:40.645Z,0
2023-05-24T02:13:56.898Z,0
2023-05-24T02:15:13.147Z,0
2023-05-24T02:16:29.386Z,0
2023-05-24T02:17:45.645Z,0
2023-05-24T02:19:01.887Z,0
2023-05-24T02:20:18.142Z,0
2023-05-24T02:21:34.391Z,0
2023-05-24T02:22:50.646Z,0
2023-05-24T02:24:06.889Z,0
2023-05-24T02:25:23.135Z,0
2023-05-24T02:26:39.392Z,0
2023-05-24T02:27:54.699Z,0
2023-05-24T02:29:10.957Z,0
2023-05-24T02:30:27.207Z,0
2023-05-24T02:31:42.521Z,0
2023-05-24T02:32:58.766Z,0
2023-05-24T02:34:15.022Z,0
2023-05-24T02:35:31.265Z,0
2023-05-24T02:36:47.524Z,0
2023-05-24T02:38:03.772Z,0
2023-05-24T02:39:20.035Z,0
2023-05-24T02:40:36.271Z,0
2023-05-24T02:41:52.518Z,0
2023-05-24T02:43:08.788Z,0
2023-05-24T02:44:25.030Z,0
2023-05-24T02:45:41.268Z,0
2023-05-24T02:46:57.521Z,0
2023-05-24T02:48:12.835Z,0
2023-05-24T02:49:29.080Z,0
2023-05-24T02:50:45.324Z,0
2023-05-24T02:52:01.574Z,0
2023-05-24T02:53:17.854Z,0
2023-05-24T02:54:34.087Z,0
2023-05-24T02:55:50.328Z,0
2023-05-24T02:57:06.585Z,0
2023-05-24T02:58:22.843Z,0
2023-05-24T02:59:39.096Z,0
2023-05-24T03:00:55.334Z,0
2023-05-24T03:02:11.579Z,0
2023-05-24T03:03:27.835Z,0
2023-05-24T03:04:43.131Z,0
2023-05-24T03:05:59.386Z,0
2023-05-24T03:07:15.634Z,0
2023-05-24T03:08:31.907Z,0
2023-05-24T03:09:48.135Z,0
2023-05-24T03:11:04.388Z,0
2023-05-24T03:12:20.641Z,0
2023-05-24T03:13:36.887Z,5
2023-05-24T03:14:53.138Z,5
2023-05-24T03:16:09.386Z,5
2023-05-24T03:17:25.639Z,5
2023-05-24T03:18:41.887Z,5
2023-05-24T03:19:58.150Z,11
2023-05-24T03:21:13.431Z,11
2023-05-24T03:22:29.689Z,11
2023-05-24T03:23:45.944Z,16
2023-05-24T03:25:02.185Z,16
2023-05-24T03:26:18.436Z,22
2023-05-24T03:27:34.679Z,22
2023-05-24T03:28:50.934Z,28
2023-05-24T03:30:07.194Z,33
2023-05-24T03:31:23.434Z,33
2023-05-24T03:33:55.940Z,45
2023-05-24T03:35:12.183Z,50
2023-05-24T03:36:28.438Z,56
2023-05-24T03:37:43.734Z,61
2023-05-24T03:38:59.989Z,67
2023-05-24T03:41:32.490Z,73
2023-05-24T03:42:48.732Z,78
2023-05-24T03:44:04.990Z,90
2023-05-24T03:45:21.232Z,95
2023-05-24T03:46:37.479Z,106
2023-05-24T03:47:53.743Z,112
2023-05-24T03:49:09.986Z,123
2023-05-24T03:50:26.244Z,135
2023-05-24T03:51:42.494Z,146
2023-05-24T03:52:58.740Z,151
2023-05-24T03:54:14.054Z,163
2023-05-24T03:55:30.302Z,168
2023-05-24T03:56:46.547Z,185
2023-05-24T03:58:02.796Z,191
2023-05-24T03:59:19.054Z,208
2023-05-24T04:00:35.305Z,219
2023-05-24T04:01:51.559Z,230
2023-05-24T04:03:07.804Z,247
2023-05-24T04:04:24.057Z,258
2023-05-24T04:05:40.308Z,275
2023-05-24T04:06:56.569Z,292
2023-05-24T04:08:12.808Z,303
2023-05-24T04:10:45.311Z,337
2023-05-24T04:12:00.609Z,348
2023-05-24T04:13:16.858Z,360
2023-05-24T04:14:33.109Z,371
2023-05-24T04:15:40.000Z,388
2023-05-24T04:17:05.613Z,405
2023-05-24T04:18:21.858Z,421
2023-05-24T04:19:38.117Z,438
2023-05-24T04:20:54.359Z,466
2023-05-24T04:22:10.615Z,483
2023-05-24T04:23:26.857Z,495
2023-05-24T04:24:43.000Z,517
2023-05-24T04:25:59.362Z,528
2023-05-24T04:27:15.616Z,545
2023-05-24T04:28:30.911Z,556
2023-05-24T04:29:47.167Z,585
2023-05-24T04:31:03.418Z,618
2023-05-24T04:32:19.666Z,646
2023-05-24T04:33:35.924Z,663
2023-05-24T04:34:52.162Z,675
2023-05-24T04:36:08.423Z,686
2023-05-24T04:37:24.667Z,697
2023-05-24T04:38:40.924Z,708
2023-05-24T04:39:57.173Z,736
2023-05-24T04:41:13.424Z,742
2023-05-24T04:42:29.672Z,781
2023-05-24T04:43:45.920Z,821
2023-05-24T04:45:01.226Z,832
2023-05-24T04:46:17.471Z,815
2023-05-24T04:47:33.758Z,781
2023-05-24T04:48:49.971Z,860
2023-05-24T04:50:06.218Z,888
2023-05-24T04:51:22.468Z,922
2023-05-24T04:52:38.721Z,945
2023-05-24T04:53:54.968Z,950
2023-05-24T04:56:27.464Z,967
2023-05-24T04:57:43.720Z,978
2023-05-24T04:58:59.976Z,1012
2023-05-24T05:00:16.225Z,1051
2023-05-24T05:01:31.514Z,1091
2023-05-24T05:02:47.771Z,1096
2023-05-24T05:04:04.012Z,1108
2023-05-24T05:05:20.281Z,1108
2023-05-24T05:06:36.516Z,1108
2023-05-24T05:07:52.764Z,1141
2023-05-24T05:09:09.021Z,1153
2023-05-24T05:10:25.266Z,1192
2023-05-24T05:11:41.517Z,1203
2023-05-24T05:12:57.772Z,1220
2023-05-24T05:14:14.051Z,1265
2023-05-24T05:15:30.268Z,1276
2023-05-24T05:16:46.521Z,1265
2023-05-24T05:18:01.824Z,1282
2023-05-24T05:19:18.075Z,1333
2023-05-24T05:20:34.329Z,1344
2023-05-24T05:21:50.583Z,1333
2023-05-24T05:23:06.835Z,1366
2023-05-24T05:24:23.077Z,1389
2023-05-24T05:25:39.334Z,1406
2023-05-24T05:26:55.580Z,1423
2023-05-24T05:28:11.836Z,1451
2023-05-24T05:29:28.072Z,1479
2023-05-24T05:30:44.332Z,1546
2023-05-24T05:32:00.585Z,1580
2023-05-24T05:33:16.839Z,1569
2023-05-24T05:34:33.080Z,1603
2023-05-24T05:35:48.382Z,1608
2023-05-24T05:37:04.635Z,1603
2023-05-24T05:38:20.886Z,1636
2023-05-24T05:39:37.134Z,1642
2023-05-24T05:40:53.381Z,1670
2023-05-24T05:42:09.637Z,1749
2023-05-24T05:43:25.884Z,1749
2023-05-24T05:44:42.130Z,1715
2023-05-24T05:45:58.384Z,1743
2023-05-24T05:47:14.629Z,1760
2023-05-24T05:48:30.884Z,1811
2023-05-24T05:49:47.138Z,1833
2023-05-24T05:51:03.381Z,1811
2023-05-24T05:52:18.702Z,1996
2023-05-24T05:53:34.938Z,1895
2023-05-24T05:54:51.193Z,1867
2023-05-24T05:56:07.438Z,1895
2023-05-24T05:57:23.698Z,1935
2023-05-24T05:58:39.943Z,1935
2023-05-24T05:59:56.203Z,1991
2023-05-24T06:01:12.447Z,2013
2023-05-24T06:02:28.706Z,2058
2023-05-24T06:03:44.947Z,2188
2023-05-24T06:04:52.000Z,2165
2023-05-24T06:06:17.450Z,2058
2023-05-24T06:07:33.693Z,1996
2023-05-24T06:08:49.953Z,2075
2023-05-24T06:09:56.000Z,2064
2023-05-24T06:11:21.496Z,2205
2023-05-24T06:12:37.742Z,2261
2023-05-24T06:13:53.993Z,2311
2023-05-24T06:15:10.249Z,2649
2023-05-24T06:16:26.494Z,2632
2023-05-24T06:17:42.742Z,2604
2023-05-24T06:18:58.999Z,2767
2023-05-24T06:20:15.247Z,2739
2023-05-24T06:21:31.499Z,2694
2023-05-24T06:22:47.746Z,2767
2023-05-24T06:24:03.997Z,2418
2023-05-24T06:25:20.247Z,1681
2023-05-24T06:26:35.000Z,1535
2023-05-24T06:27:51.816Z,1558
2023-05-24T06:29:08.059Z,2233
2023-05-24T06:30:24.316Z,1513
2023-05-24T06:31:40.553Z,1935
2023-05-24T06:32:56.806Z,1603
2023-05-24T06:34:13.056Z,1845
2023-05-24T06:35:29.316Z,1980
2023-05-24T06:36:45.557Z,1777
2023-05-24T06:38:01.810Z,1738
2023-05-24T06:39:18.056Z,1935
2023-05-24T06:40:34.313Z,1670
2023-05-24T06:41:50.557Z,1625
2023-05-24T06:43:06.810Z,1771
2023-05-24T06:44:22.108Z,1710
2023-05-24T06:45:38.358Z,3448
2023-05-24T06:46:53.674Z,2013
2023-05-24T06:48:09.930Z,1805
2023-05-24T06:49:26.172Z,1839
2023-05-24T06:50:42.423Z,1456
2023-05-24T06:51:58.681Z,1456
2023-05-24T06:53:14.929Z,1479
2023-05-24T06:54:31.177Z,1501
2023-05-24T06:55:47.425Z,1980
2023-05-24T06:57:03.675Z,3234
2023-05-24T06:58:19.928Z,2255
2023-05-24T06:59:36.176Z,1710
2023-05-24T07:00:52.419Z,1901
2023-05-24T07:02:08.678Z,1653
2023-05-24T07:03:23.977Z,3515
2023-05-24T07:04:40.246Z,1620
2023-05-24T07:05:56.470Z,3403
2023-05-24T07:07:12.717Z,1788
2023-05-24T07:08:28.970Z,1468
2023-05-24T07:09:45.217Z,1355
2023-05-24T07:11:01.473Z,1451
2023-05-24T07:12:17.726Z,1620
2023-05-24T07:13:33.973Z,2300
2023-05-24T07:14:50.223Z,1721
2023-05-24T07:16:06.480Z,2863
2023-05-24T07:17:22.723Z,3673
2023-05-24T07:18:38.973Z,1743
2023-05-24T07:19:54.285Z,1749
2023-05-24T07:21:10.527Z,1676
2023-05-24T07:22:26.783Z,1670
2023-05-24T07:23:43.035Z,3858
2023-05-24T07:24:59.279Z,1901
2023-05-24T07:26:15.543Z,2947
2023-05-24T07:27:31.785Z,1704
2023-05-24T07:28:48.032Z,1676
2023-05-24T07:30:04.281Z,3954
2023-05-24T07:31:20.540Z,3251
2023-05-24T07:32:36.781Z,1951
2023-05-24T07:33:44.000Z,3633
2023-05-24T07:35:09.290Z,2086
2023-05-24T07:36:24.578Z,2548
2023-05-24T07:37:40.838Z,3875
2023-05-24T07:38:57.088Z,3926
2023-05-24T07:40:13.338Z,1963
2023-05-24T07:41:29.581Z,1856
2023-05-24T07:42:45.837Z,1884
2023-05-24T07:44:02.082Z,2233
2023-05-24T07:45:18.334Z,2199
2023-05-24T07:46:34.589Z,1985
2023-05-24T07:47:50.843Z,1608
2023-05-24T07:49:07.102Z,1726
2023-05-24T07:50:23.337Z,1721
2023-05-24T07:51:39.580Z,2829
2023-05-24T07:52:55.840Z,1811
2023-05-24T07:54:11.146Z,1777
2023-05-24T07:55:27.397Z,1845
2023-05-24T07:56:43.651Z,2587
2023-05-24T07:57:59.907Z,1850
2023-05-24T07:59:16.138Z,2660
2023-05-24T08:00:32.401Z,1501
2023-05-24T08:01:48.646Z,1282
2023-05-24T08:03:04.891Z,1226
2023-05-24T08:04:21.149Z,1400
2023-05-24T08:05:37.397Z,1788
2023-05-24T08:06:53.655Z,1895
2023-05-24T08:08:09.896Z,1895
2023-05-24T08:09:26.144Z,2430
2023-05-24T08:10:41.443Z,1833
2023-05-24T08:11:57.695Z,2098
2023-05-24T08:13:13.955Z,4072
2023-05-24T08:14:30.194Z,3172
2023-05-24T08:15:46.445Z,2626
2023-05-24T08:17:02.699Z,2008
2023-05-24T08:18:18.946Z,1873
2023-05-24T08:19:35.193Z,1850
2023-05-24T08:20:51.444Z,1794
2023-05-24T08:22:07.696Z,1665
2023-05-24T08:23:23.946Z,1755
2023-05-24T08:24:40.202Z,1828
2023-05-24T08:25:56.446Z,1906
2023-05-24T08:27:11.767Z,1996
2023-05-24T08:28:28.013Z,2126
2023-05-24T08:29:44.254Z,2300
2023-05-24T08:31:00.492Z,2593
2023-05-24T08:32:16.749Z,2795
2023-05-24T08:33:32.996Z,2891
2023-05-24T08:34:40.000Z,3543
2023-05-24T08:36:05.501Z,3386
2023-05-24T08:37:21.749Z,4038
2023-05-24T08:38:37.991Z,3538
2023-05-24T08:39:45.000Z,4258
2023-05-24T08:41:10.498Z,4561
2023-05-24T08:42:26.754Z,5608
2023-05-24T08:43:42.066Z,5321
2023-05-24T08:44:58.308Z,4921
2023-05-24T08:46:14.554Z,5146
2023-05-24T08:47:30.808Z,5158
2023-05-24T08:48:47.061Z,4966
2023-05-24T08:50:03.307Z,5371
2023-05-24T08:51:19.555Z,5709
2023-05-24T08:52:35.811Z,5220
2023-05-24T08:53:52.054Z,4961
2023-05-24T08:55:08.305Z,3459
2023-05-24T08:56:24.553Z,5422
2023-05-24T08:57:40.812Z,3926
2023-05-24T08:58:57.053Z,2261
2023-05-24T09:00:12.357Z,2508
2023-05-24T09:01:28.610Z,2182
2023-05-24T09:02:44.854Z,2109
2023-05-24T09:04:01.112Z,2109
2023-05-24T09:05:17.352Z,2025
2023-05-24T09:06:33.607Z,2086
2023-05-24T09:07:49.859Z,2385
2023-05-24T09:09:06.105Z,2109
2023-05-24T09:10:22.349Z,2025
2023-05-24T09:11:38.607Z,1980
2023-05-24T09:12:54.860Z,1906
2023-05-24T09:14:11.099Z,1856
2023-05-24T09:15:27.360Z,1884
2023-05-24T09:16:42.656Z,1991
2023-05-24T09:17:58.910Z,2700
2023-05-24T09:19:15.157Z,2407
2023-05-24T09:20:31.399Z,6018
2023-05-24T09:21:47.700Z,5743
2023-05-24T09:23:03.925Z,6198
2023-05-24T09:24:20.157Z,6333
2023-05-24T09:25:36.404Z,6260
2023-05-24T09:26:52.659Z,6097
2023-05-24T09:28:08.907Z,6114
2023-05-24T09:29:25.162Z,5416
2023-05-24T09:30:41.405Z,2660
2023-05-24T09:31:57.670Z,2998
2023-05-24T09:33:12.962Z,2908
2023-05-24T09:34:29.212Z,2683
2023-05-24T09:35:45.463Z,2728
2023-05-24T09:37:01.705Z,2711
2023-05-24T09:38:17.967Z,3037
2023-05-24T09:39:34.209Z,3273
2023-05-24T09:40:50.460Z,2446
2023-05-24T09:42:06.711Z,4021
2023-05-24T09:43:22.963Z,5793
2023-05-24T09:44:39.214Z,2019
2023-05-24T09:45:55.468Z,5484
2023-05-24T09:47:11.717Z,5214
2023-05-24T09:48:27.965Z,5034
2023-05-24T09:49:43.263Z,5495
2023-05-24T09:50:59.508Z,5731
2023-05-24T09:52:15.766Z,5574
2023-05-24T09:54:48.282Z,2970
2023-05-24T09:56:04.515Z,2981
2023-05-24T09:57:20.768Z,3065
2023-05-24T09:58:37.010Z,6316
2023-05-24T09:59:53.278Z,5563
2023-05-24T10:01:09.517Z,5658
2023-05-24T10:02:25.767Z,5754
2023-05-24T10:03:42.019Z,6345
2023-05-24T10:04:58.259Z,5360
2023-05-24T10:06:13.564Z,5197
2023-05-24T10:07:29.809Z,3369
2023-05-24T10:08:46.062Z,2806
2023-05-24T10:10:02.317Z,2553
2023-05-24T10:11:18.562Z,2368
2023-05-24T10:12:34.810Z,2311
2023-05-24T10:13:51.069Z,2160
2023-05-24T10:15:07.313Z,2261
2023-05-24T10:16:23.562Z,2424
2023-05-24T10:17:39.811Z,2874
2023-05-24T10:18:56.071Z,2896
2023-05-24T10:20:12.318Z,6204
2023-05-24T10:21:28.567Z,4398
2023-05-24T10:22:44.820Z,2621
2023-05-24T10:24:00.116Z,2643
2023-05-24T10:25:16.362Z,2677
2023-05-24T10:26:32.611Z,2958
2023-05-24T10:27:48.868Z,4432
2023-05-24T10:29:05.122Z,5979
2023-05-24T10:30:21.363Z,6485
2023-05-24T10:31:37.614Z,6660
2023-05-24T10:32:53.858Z,3324
2023-05-24T10:34:10.114Z,3487
2023-05-24T10:35:26.365Z,2604
2023-05-24T10:36:42.625Z,2424
2023-05-24T10:37:58.869Z,2255
2023-05-24T10:39:15.113Z,2278
2023-05-24T10:40:30.420Z,3223
2023-05-24T10:41:46.666Z,2823
2023-05-24T10:43:02.907Z,2998
2023-05-24T10:44:19.160Z,3071
2023-05-24T10:45:35.409Z,2851
2023-05-24T10:46:51.660Z,2778
2023-05-24T10:48:07.914Z,2851
2023-05-24T10:49:24.154Z,6114
2023-05-24T10:50:40.406Z,6547
2023-05-24T10:51:56.646Z,6187
2023-05-24T10:53:12.897Z,3166
2023-05-24T10:54:29.149Z,4196
2023-05-24T10:55:45.403Z,5664
2023-05-24T10:57:00.693Z,2761
2023-05-24T10:58:16.937Z,2401
2023-05-24T10:59:33.190Z,1996
2023-05-24T11:00:49.435Z,1693
2023-05-24T11:02:04.761Z,1513
2023-05-24T11:03:21.009Z,1395
2023-05-24T11:04:37.256Z,1361
2023-05-24T11:05:53.497Z,1366
2023-05-24T11:07:09.747Z,1344
2023-05-24T11:08:26.000Z,1378
2023-05-24T11:09:42.251Z,1507
2023-05-24T11:10:58.497Z,1642
2023-05-24T11:13:30.998Z,1811
2023-05-24T11:14:47.236Z,1850
2023-05-24T11:16:03.504Z,1873
2023-05-24T11:17:19.737Z,1861
2023-05-24T11:18:35.033Z,1890
2023-05-24T11:19:51.289Z,1985
2023-05-24T11:21:07.540Z,2137
2023-05-24T11:22:23.777Z,2244
2023-05-24T11:23:40.028Z,2272
2023-05-24T11:24:56.280Z,2154
2023-05-24T11:26:12.518Z,2019
2023-05-24T11:28:45.050Z,1918
2023-05-24T11:30:01.280Z,1918
2023-05-24T11:31:17.523Z,1951
2023-05-24T11:32:33.770Z,1974
2023-05-24T11:33:50.024Z,1991
2023-05-24T11:35:05.320Z,2025
2023-05-24T11:36:21.578Z,2137
2023-05-24T11:37:37.815Z,2266
2023-05-24T11:38:54.067Z,2441
2023-05-24T11:40:10.309Z,2368
2023-05-24T11:41:26.558Z,2272
2023-05-24T11:42:42.812Z,2182
2023-05-24T11:43:59.053Z,2131
2023-05-24T11:45:06.000Z,2081
2023-05-24T11:46:31.555Z,2081
2023-05-24T11:47:47.807Z,2064
2023-05-24T11:49:04.049Z,2058
2023-05-24T11:50:20.303Z,2210
2023-05-24T11:51:35.633Z,2446
2023-05-24T11:52:51.846Z,2655
2023-05-24T11:54:08.097Z,2891
2023-05-24T11:55:24.342Z,3127
2023-05-24T11:56:40.612Z,3301
2023-05-24T11:57:56.839Z,3493
2023-05-24T11:59:13.082Z,3712
2023-05-24T12:00:29.336Z,3881
2023-05-24T12:01:45.584Z,3054
2023-05-24T12:03:01.827Z,2643
2023-05-24T12:04:18.082Z,2548
2023-05-24T12:05:34.331Z,2643
2023-05-24T12:06:50.579Z,2756
2023-05-24T12:08:05.879Z,2716
2023-05-24T12:09:22.138Z,2227
2023-05-24T12:10:38.387Z,1878
2023-05-24T12:11:54.637Z,1648
2023-05-24T12:13:10.889Z,1468
2023-05-24T12:14:27.124Z,1372
2023-05-24T12:15:43.371Z,1344
2023-05-24T12:16:59.627Z,1400
2023-05-24T12:18:15.874Z,1546
2023-05-24T12:19:32.124Z,1726
2023-05-24T12:20:48.366Z,1935
2023-05-24T12:22:04.622Z,2148
2023-05-24T12:23:11.000Z,2373
2023-05-24T12:24:36.174Z,2576
2023-05-24T12:25:52.415Z,2677
2023-05-24T12:27:08.668Z,2576
2023-05-24T12:28:24.921Z,2497
2023-05-24T12:29:41.184Z,2525
2023-05-24T12:30:57.415Z,2610
2023-05-24T12:32:13.660Z,2700
2023-05-24T12:33:29.909Z,2705
2023-05-24T12:34:46.166Z,2565
2023-05-24T12:36:02.420Z,2368
2023-05-24T12:37:18.676Z,2250
2023-05-24T12:38:25.000Z,2205
2023-05-24T12:39:51.152Z,2075
2023-05-24T12:41:06.449Z,1901
2023-05-24T12:42:13.000Z,1743
2023-05-24T12:43:38.950Z,1591
2023-05-24T12:44:55.201Z,1445
2023-05-24T12:46:11.450Z,1305
2023-05-24T12:47:27.691Z,1181
2023-05-24T12:48:43.940Z,1068
2023-05-24T12:50:00.188Z,984
2023-05-24T12:51:16.446Z,928
2023-05-24T12:52:32.688Z,883
2023-05-24T12:53:48.933Z,866
2023-05-24T12:55:05.185Z,843
2023-05-24T12:56:21.454Z,843
2023-05-24T12:57:36.730Z,894
2023-05-24T12:58:52.978Z,961
2023-05-24T13:00:09.223Z,1040
2023-05-24T13:01:25.471Z,1091
2023-05-24T13:02:41.725Z,1130
2023-05-24T13:03:57.974Z,1175
2023-05-24T13:05:14.224Z,1203
2023-05-24T13:06:30.472Z,1220
2023-05-24T13:07:46.720Z,1220
2023-05-24T13:09:02.964Z,1186
2023-05-24T13:10:19.214Z,1141
2023-05-24T13:11:35.468Z,1091
2023-05-24T13:12:51.709Z,1051
2023-05-24T13:14:07.966Z,1029
2023-05-24T13:15:23.256Z,1012
2023-05-24T13:16:39.510Z,1001
2023-05-24T13:17:55.754Z,1001
2023-05-24T13:19:12.019Z,1001
2023-05-24T13:20:28.249Z,978
2023-05-24T13:21:44.512Z,956
2023-05-24T13:23:00.748Z,922
2023-05-24T13:24:16.999Z,900
2023-05-24T13:25:33.249Z,883
2023-05-24T13:26:49.501Z,883
2023-05-24T13:27:56.000Z,877
2023-05-24T13:29:21.998Z,866
2023-05-24T13:30:38.244Z,855
2023-05-24T13:31:53.536Z,843
2023-05-24T13:33:09.787Z,849
2023-05-24T13:34:26.038Z,849
2023-05-24T13:35:42.281Z,871
2023-05-24T13:36:58.538Z,894
2023-05-24T13:38:14.784Z,928
2023-05-24T13:39:31.033Z,973
2023-05-24T13:40:47.286Z,1012
2023-05-24T13:42:03.538Z,1057
2023-05-24T13:43:19.779Z,1108
2023-05-24T13:44:36.051Z,1147
2023-05-24T13:45:52.274Z,1192
2023-05-24T13:47:08.533Z,1237
2023-05-24T13:48:23.830Z,1265
2023-05-24T13:49:40.069Z,1293
2023-05-24T13:50:56.321Z,1338
2023-05-24T13:52:12.561Z,1378
2023-05-24T13:53:28.812Z,1434
2023-05-24T13:54:45.071Z,1456
2023-05-24T13:56:01.317Z,1473
2023-05-24T13:57:17.555Z,1462
2023-05-24T13:58:33.816Z,1451
2023-05-24T13:59:50.058Z,1456
2023-05-24T14:01:06.310Z,1423
2023-05-24T14:02:22.556Z,1366
2023-05-24T14:03:38.806Z,1316
2023-05-24T14:04:54.106Z,1305
2023-05-24T14:06:10.357Z,1316
2023-05-24T14:07:26.596Z,1333
2023-05-24T14:08:42.839Z,1344
2023-05-24T14:09:59.133Z,1378
2023-05-24T14:11:15.347Z,1428
2023-05-24T14:12:31.592Z,1468
2023-05-24T14:13:47.846Z,1507
2023-05-24T14:15:04.092Z,1530
2023-05-24T14:16:20.336Z,1546
2023-05-24T14:17:36.588Z,1580
2023-05-24T14:18:52.835Z,1653
2023-05-24T14:20:09.083Z,1732
2023-05-24T14:21:24.384Z,1822
2023-05-24T14:22:40.631Z,1923
2023-05-24T14:23:56.879Z,2053
2023-05-24T14:25:13.127Z,2193
2023-05-24T14:27:45.634Z,2520
2023-05-24T14:29:01.905Z,2266
2023-05-24T14:30:18.117Z,2137
2023-05-24T14:31:34.368Z,2103
2023-05-24T14:32:50.621Z,2570
2023-05-24T14:34:06.862Z,2649
2023-05-24T14:35:23.115Z,2576
2023-05-24T14:36:39.371Z,2964
2023-05-24T14:37:54.673Z,2823
2023-05-24T14:39:10.920Z,2655
2023-05-24T14:40:27.165Z,2503
2023-05-24T14:41:43.416Z,2553
2023-05-24T14:42:59.661Z,2643
2023-05-24T14:44:15.908Z,2638
2023-05-24T14:45:32.168Z,2570
2023-05-24T14:46:48.409Z,2542
2023-05-24T14:48:04.663Z,2565
2023-05-24T14:49:20.907Z,2497
2023-05-24T14:50:37.160Z,2216
2023-05-24T14:51:53.409Z,2407
2023-05-24T14:53:09.660Z,2176
2023-05-24T14:54:24.955Z,2148
2023-05-24T14:55:41.202Z,2041
2023-05-24T14:56:57.454Z,1946
2023-05-24T14:58:13.693Z,1873
2023-05-24T14:59:29.946Z,1833
2023-05-24T15:02:02.437Z,1867
2023-05-24T15:03:18.711Z,1940
2023-05-24T15:04:34.941Z,2019
2023-05-24T15:05:51.188Z,2025
2023-05-24T15:07:07.436Z,1991
2023-05-24T15:08:23.692Z,2047
2023-05-24T15:09:39.931Z,2081
2023-05-24T15:10:55.234Z,2064
2023-05-24T15:12:11.481Z,2098
2023-05-24T15:13:27.725Z,2199
2023-05-24T15:14:43.976Z,2126
2023-05-24T15:16:00.225Z,2041
2023-05-24T15:17:15.548Z,2019
2023-05-24T15:18:31.792Z,2041
2023-05-24T15:19:48.038Z,2317
2023-05-24T15:21:04.289Z,2272
2023-05-24T15:22:20.541Z,2604
2023-05-24T15:23:36.783Z,3150
2023-05-24T15:24:53.033Z,2486
2023-05-24T15:26:09.278Z,2430
2023-05-24T15:27:25.532Z,3358
2023-05-24T15:28:41.772Z,3217
2023-05-24T15:29:58.029Z,3273
2023-05-24T15:31:14.279Z,3155
2023-05-24T15:32:30.524Z,3093
2023-05-24T15:33:45.820Z,3099
2023-05-24T15:35:02.064Z,3217
2023-05-24T15:36:18.322Z,3110
2023-05-24T15:37:34.569Z,2244
2023-05-24T15:38:50.831Z,2671
2023-05-24T15:40:07.066Z,3116
2023-05-24T15:41:23.316Z,2925
2023-05-24T15:42:39.564Z,2385
2023-05-24T15:43:55.817Z,2328
2023-05-24T15:45:12.058Z,2418
2023-05-24T15:46:28.312Z,2385
2023-05-24T15:47:44.553Z,2210
2023-05-24T15:48:51.000Z,1895
2023-05-24T15:50:16.115Z,1659
2023-05-24T15:51:32.367Z,1496
2023-05-24T15:52:48.618Z,1490
2023-05-24T15:54:04.860Z,1344
2023-05-24T15:55:21.106Z,1231
2023-05-24T15:56:37.354Z,1170
2023-05-24T15:57:53.610Z,1186
2023-05-24T15:59:09.850Z,1226
2023-05-24T16:00:26.097Z,1192
2023-05-24T16:01:42.348Z,1108
2023-05-24T16:02:58.593Z,1046
2023-05-24T16:04:14.847Z,990
2023-05-24T16:05:31.093Z,978
2023-05-24T16:06:46.390Z,984
2023-05-24T16:08:02.634Z,990
2023-05-24T16:09:18.887Z,1018
2023-05-24T16:10:35.132Z,1012
2023-05-24T16:11:51.385Z,1001
2023-05-24T16:13:07.630Z,961
2023-05-24T16:14:23.882Z,956
2023-05-24T16:15:40.134Z,928
2023-05-24T16:16:56.380Z,928
2023-05-24T16:18:12.627Z,945
2023-05-24T16:19:28.876Z,945
2023-05-24T16:20:45.121Z,894
2023-05-24T16:22:01.374Z,849
2023-05-24T16:23:16.671Z,832
2023-05-24T16:24:32.920Z,838
2023-05-24T16:25:49.174Z,866
2023-05-24T16:27:05.414Z,905
2023-05-24T16:28:21.659Z,933
2023-05-24T16:29:37.912Z,950
2023-05-24T16:30:54.177Z,973
2023-05-24T16:32:10.414Z,1001
2023-05-24T16:33:26.658Z,1029
2023-05-24T16:34:42.910Z,1057
2023-05-24T16:35:59.160Z,1068
2023-05-24T16:37:15.417Z,1057
2023-05-24T16:38:31.653Z,1046
2023-05-24T16:39:46.946Z,1018
2023-05-24T16:41:03.215Z,978
2023-05-24T16:42:19.441Z,956
2023-05-24T16:43:35.688Z,945
2023-05-24T16:44:51.938Z,928
2023-05-24T16:46:08.196Z,905
2023-05-24T16:47:24.442Z,900
2023-05-24T16:48:40.684Z,888
2023-05-24T16:49:56.933Z,888
2023-05-24T16:51:13.194Z,883
2023-05-24T16:52:29.445Z,860
2023-05-24T16:53:45.683Z,810
2023-05-24T16:55:01.930Z,759
2023-05-24T16:56:17.230Z,708
2023-05-24T16:57:33.480Z,680
2023-05-24T16:58:49.723Z,680
2023-05-24T17:00:05.975Z,686
2023-05-24T17:01:22.224Z,680
2023-05-24T17:02:38.465Z,669
2023-05-24T17:03:54.718Z,658
2023-05-24T17:05:10.961Z,652
2023-05-24T17:06:27.217Z,646
2023-05-24T17:07:43.456Z,641
2023-05-24T17:08:59.712Z,624
2023-05-24T17:10:15.959Z,601
2023-05-24T17:11:32.211Z,573
2023-05-24T17:12:47.504Z,556
2023-05-24T17:14:03.764Z,523
2023-05-24T17:15:20.009Z,500
2023-05-24T17:16:36.250Z,483
2023-05-24T17:17:52.504Z,472
2023-05-24T17:19:08.749Z,461
2023-05-24T17:20:25.014Z,444
2023-05-24T17:21:41.248Z,438
2023-05-24T17:22:57.492Z,421
2023-05-24T17:24:13.739Z,410
2023-05-24T17:25:29.988Z,399
2023-05-24T17:26:46.232Z,388
2023-05-24T17:28:02.500Z,382
2023-05-24T17:29:17.795Z,376
2023-05-24T17:30:34.043Z,371
2023-05-24T17:31:50.285Z,371
2023-05-24T17:33:06.537Z,365
2023-05-24T17:34:22.786Z,365